EBLG Airport Information

Runway Information
Runway 04R Length 12106 ft width 148 ft Elevation 652 ft Threshold 774 ft Heading 45
Runway 22L Length 12106 ft Width 148 ft Elevation 603 ft Threshold N/A Heading 225
Runway 04L Length 7677 ft width 148 ft Elevation 637 ft Threshold N/A Heading 45
Runway 22R Length 7677 ft Width 148 ft Elevation 585 ft Threshold N/A Heading 225
Airport Frequencies
Type A/D Name APP Frequency 119.275 MHZ
Type ATIS Name ATIS Frequency 126.25 MHZ
Type CLD Name CLNC DEL Frequency 121.8 MHZ
Type GND Name GND Frequency 121.925 MHZ
Type TWR Name TWR Frequency 129.25 MHZ
Airport Navaids
Type NDB Name Liege Frequency 349 KHZ
Type VOR-DME Name Liege Frequency 115450 KHZ
Type NDB Name Liege Frequency 290 KHZ
Airport Weather Information & NOTAM
ADDS - METARS form results

(2000 UTC 28 January 2023)
Data provider http://aviationweather.gov/metar/data/
 
METAR text: EBLG 281950Z VRB01KT 9999 SCT020 M02/M05 Q1031 NOSIG
Conditions at: EBLG (BIERSET/LIEGE (C, BE) observed 1950 UTC 28 January 2023
Temperature: -2.0°C (28°F)
Dewpoint: -5.0°C (23°F) [RH = 80%]
Pressure (altimeter): 30.44 inches Hg (1031.0 mb)
Winds: variable direction winds at 1 MPH (1 knots; 0.5 m/s)
Visibility: 6 or more miles (10+ km)
Ceiling: at least 12,000 feet AGL
Clouds: scattered clouds at 2000 feet AGL
Weather: no significant weather observed at this time

METAR text: EBLG 281920Z 03002KT 9999 SCT020 M02/M05 Q1031 NOSIG
Conditions at: EBLG (BIERSET/LIEGE (C, BE) observed 1920 UTC 28 January 2023
Temperature: -2.0°C (28°F)
Dewpoint: -5.0°C (23°F) [RH = 80%]
Pressure (altimeter): 30.44 inches Hg (1031.0 mb)
Winds: from the NNE (30 degrees) at 2 MPH (2 knots; 1.0 m/s)
Visibility: 6 or more miles (10+ km)
Ceiling: at least 12,000 feet AGL
Clouds: scattered clouds at 2000 feet AGL
Weather: no significant weather observed at this time

Forecast for: EBLG (BIERSET/LIEGE (C, BE)
Text: TAF EBLG 281715Z 2818/2924 03006KT 9999 BKN020
Forecast period: 1800 UTC 28 January 2023 to 0000 UTC 30 January 2023
Forecast type: FROM: standard forecast or significant change
Winds: from the NNE (30 degrees) at 7 MPH (6 knots; 3.1 m/s)
Visibility: 6 or more miles (10+ km)
Ceiling: 2000 feet AGL
Clouds: broken clouds at 2000 feet AGL
Weather: no significant weather forecast for this period
Text: PROB30
Forecast period: 0100 to 0800 UTC 29 January 2023
Forecast type: TEMPORARY: The following changes expected for less than half the time period
Visibility: 1.86 miles (2.99 km)
Ceiling: unknown
Clouds: missing
Weather: BR  (mist)
Text: TEMPO 2901/2908 3000 BR
Forecast period: 1800 UTC 29 January 2023 to 0000 UTC 30 January 2023
Forecast type: TEMPORARY: The following changes expected for less than half the time period
Visibility: missing
Ceiling: 1200 feet AGL
Clouds: broken clouds at 1200 feet AGL
Weather: no significant weather forecast for this period